PWSweather.com
Personal Weather Stations
Station Observations
SHAHALMS1
Eftra, Falkenberg, HA

EftraFalkenberg, HA

Lat: 56.85, Lon: 12.65

Elevation: 140

Station Type:

http://hem.passagen.se/risarp101

High Low Average
Temperature 71.4°F21.9°C 50.7°F10.4°C 60.6°F15.9°C
Dew Point 57.4°F14.1°C 45.1°F7.3°C 51.2°F10.7°C
Winds 6.9 mph 11.1 kmh Calm Calm 1.0 mph SSE1.6 kmh SSE
Wind Gusts 12.9 mph20.8 kmh -- 4.0 mph6.4 kmh
Humidity 90% 56% 72%
Pressure 29.77 in1008.1 mb 29.65 in1004.1 mb -
Precipitation 0.00 in0.0 mm - -
Hour Temp Dew Point Humidity Winds Wind Gusts Pressure Precip Precip Rate Daily Precip Total
12:00 AM 58.5°F14.7°C 55.2°F12.9°C 89% 0.2 mph NW0.3 kmh NW 3.6 mph5.8 kmh 29.68 in1005.1 mb 0.00 in0.0 mm 0.00 in0.0 mm 0.00 in0.0 mm
12:10 AM 58.5°F14.7°C 55.2°F12.9°C 89% Calm Calm -- 29.68 in1005.1 mb 0.00 in0.0 mm 0.00 in0.0 mm 0.00 in0.0 mm
12:20 AM 58.5°F14.7°C 55.2°F12.9°C 89% Calm Calm -- 29.68 in1005.1 mb 0.00 in0.0 mm 0.00 in0.0 mm 0.00 in0.0 mm
12:30 AM 58.5°F14.7°C 55.2°F12.9°C 89% Calm Calm -- 29.68 in1005.1 mb 0.00 in0.0 mm 0.00 in0.0 mm 0.00 in0.0 mm
12:40 AM 58.5°F14.7°C 55.2°F12.9°C 89% Calm Calm -- 29.68 in1005.1 mb 0.00 in0.0 mm 0.00 in0.0 mm 0.00 in0.0 mm
12:50 AM 58.3°F14.6°C 55.1°F12.8°C 89% Calm Calm -- 29.68 in1005.1 mb 0.00 in0.0 mm 0.00 in0.0 mm 0.00 in0.0 mm
01:00 AM 58.1°F14.5°C 54.9°F12.7°C 89% Calm Calm -- 29.68 in1005.1 mb 0.00 in0.0 mm 0.00 in0.0 mm 0.00 in0.0 mm
01:10 AM 57.9°F14.4°C 54.4°F12.4°C 88% Calm Calm -- 29.68 in1005.1 mb 0.00 in0.0 mm 0.00 in0.0 mm 0.00 in0.0 mm
01:20 AM 57.7°F14.3°C 54.2°F12.3°C 88% Calm Calm -- 29.68 in1005.1 mb 0.00 in0.0 mm 0.00 in0.0 mm 0.00 in0.0 mm
01:30 AM 57.4°F14.1°C 54.2°F12.3°C 89% Calm Calm 1.4 mph2.3 kmh 29.71 in1006.1 mb 0.00 in0.0 mm 0.00 in0.0 mm 0.00 in0.0 mm
01:40 AM 57.2°F14.0°C 54.0°F12.2°C 89% Calm Calm -- 29.71 in1006.1 mb 0.00 in0.0 mm 0.00 in0.0 mm 0.00 in0.0 mm
01:50 AM 57.0°F13.9°C 53.8°F12.1°C 89% Calm Calm -- 29.71 in1006.1 mb 0.00 in0.0 mm 0.00 in0.0 mm 0.00 in0.0 mm
02:00 AM 57.2°F14.0°C 54.0°F12.2°C 89% Calm Calm -- 29.68 in1005.1 mb 0.00 in0.0 mm 0.00 in0.0 mm 0.00 in0.0 mm
02:10 AM 57.2°F14.0°C 54.0°F12.2°C 89% Calm Calm -- 29.68 in1005.1 mb 0.00 in0.0 mm 0.00 in0.0 mm 0.00 in0.0 mm
02:20 AM 57.2°F14.0°C 54.3°F12.4°C 90% Calm Calm -- 29.68 in1005.1 mb 0.00 in0.0 mm 0.00 in0.0 mm 0.00 in0.0 mm
02:30 AM 57.2°F14.0°C 54.3°F12.4°C 90% Calm Calm -- 29.65 in1004.1 mb 0.00 in0.0 mm 0.00 in0.0 mm 0.00 in0.0 mm
02:40 AM 57.2°F14.0°C 54.3°F12.4°C 90% Calm Calm -- 29.65 in1004.1 mb 0.00 in0.0 mm 0.00 in0.0 mm 0.00 in0.0 mm
02:50 AM 57.2°F14.0°C 54.3°F12.4°C 90% Calm Calm -- 29.65 in1004.1 mb 0.00 in0.0 mm 0.00 in0.0 mm 0.00 in0.0 mm
03:00 AM 57.0°F13.9°C 54.1°F12.3°C 90% Calm Calm -- 29.68 in1005.1 mb 0.00 in0.0 mm 0.00 in0.0 mm 0.00 in0.0 mm
03:10 AM 57.0°F13.9°C 54.1°F12.3°C 90% Calm Calm -- 29.68 in1005.1 mb 0.00 in0.0 mm 0.00 in0.0 mm 0.00 in0.0 mm
03:20 AM 57.0°F13.9°C 54.1°F12.3°C 90% Calm Calm -- 29.68 in1005.1 mb 0.00 in0.0 mm 0.00 in0.0 mm 0.00 in0.0 mm
03:30 AM 57.0°F13.9°C 54.1°F12.3°C 90% Calm Calm -- 29.68 in1005.1 mb 0.00 in0.0 mm 0.00 in0.0 mm 0.00 in0.0 mm
03:40 AM 56.8°F13.8°C 53.9°F12.2°C 90% Calm Calm -- 29.68 in1005.1 mb 0.00 in0.0 mm 0.00 in0.0 mm 0.00 in0.0 mm
03:50 AM 56.8°F13.8°C 53.9°F12.2°C 90% 0.2 mph WNW0.3 kmh WNW 3.9 mph6.3 kmh 29.68 in1005.1 mb 0.00 in0.0 mm 0.00 in0.0 mm 0.00 in0.0 mm
04:00 AM 56.7°F13.7°C 53.5°F11.9°C 89% Calm Calm -- 29.71 in1006.1 mb 0.00 in0.0 mm 0.00 in0.0 mm 0.00 in0.0 mm
04:10 AM 56.7°F13.7°C 53.5°F11.9°C 89% 0.1 mph W0.2 kmh W 2.1 mph3.4 kmh 29.71 in1006.1 mb 0.00 in0.0 mm 0.00 in0.0 mm 0.00 in0.0 mm
04:20 AM 56.5°F13.6°C 53.0°F11.7°C 88% Calm Calm 2.1 mph3.4 kmh 29.68 in1005.1 mb 0.00 in0.0 mm 0.00 in0.0 mm 0.00 in0.0 mm
04:30 AM 56.3°F13.5°C 52.8°F11.6°C 88% Calm Calm -- 29.68 in1005.1 mb 0.00 in0.0 mm 0.00 in0.0 mm 0.00 in0.0 mm
04:40 AM 56.1°F13.4°C 52.3°F11.3°C 87% Calm Calm -- 29.68 in1005.1 mb 0.00 in0.0 mm 0.00 in0.0 mm 0.00 in0.0 mm
04:50 AM 55.9°F13.3°C 52.1°F11.2°C 87% Calm Calm -- 29.68 in1005.1 mb 0.00 in0.0 mm 0.00 in0.0 mm 0.00 in0.0 mm
05:00 AM 56.1°F13.4°C 52.3°F11.3°C 87% Calm Calm -- 29.71 in1006.1 mb 0.00 in0.0 mm 0.00 in0.0 mm 0.00 in0.0 mm
05:10 AM 56.5°F13.6°C 52.7°F11.5°C 87% Calm Calm -- 29.71 in1006.1 mb 0.00 in0.0 mm 0.00 in0.0 mm 0.00 in0.0 mm
05:20 AM 56.7°F13.7°C 52.5°F11.4°C 86% Calm Calm -- 29.71 in1006.1 mb 0.00 in0.0 mm 0.00 in0.0 mm 0.00 in0.0 mm
05:30 AM 57.0°F13.9°C 52.9°F11.6°C 86% 0.5 mph N0.8 kmh N 4.3 mph6.9 kmh 29.71 in1006.1 mb 0.00 in0.0 mm 0.00 in0.0 mm 0.00 in0.0 mm
05:40 AM 57.2°F14.0°C 52.7°F11.5°C 85% Calm Calm -- 29.71 in1006.1 mb 0.00 in0.0 mm 0.00 in0.0 mm 0.00 in0.0 mm
05:50 AM 57.4°F14.1°C 52.9°F11.6°C 85% 0.2 mph NW0.3 kmh NW 3.6 mph5.8 kmh 29.71 in1006.1 mb 0.00 in0.0 mm 0.00 in0.0 mm 0.00 in0.0 mm
06:00 AM 57.9°F14.4°C 53.4°F11.9°C 85% 3.0 mph NNW4.8 kmh NNW 6.8 mph10.9 kmh 29.71 in1006.1 mb 0.00 in0.0 mm 0.00 in0.0 mm 0.00 in0.0 mm
06:10 AM 60.3°F15.7°C 55.4°F13.0°C 84% 3.5 mph NNW5.6 kmh NNW 6.4 mph10.3 kmh 29.71 in1006.1 mb 0.00 in0.0 mm 0.00 in0.0 mm 0.00 in0.0 mm
06:20 AM 62.8°F17.1°C 56.2°F13.4°C 79% 3.8 mph NNW6.1 kmh NNW 8.6 mph13.8 kmh 29.71 in1006.1 mb 0.00 in0.0 mm 0.00 in0.0 mm 0.00 in0.0 mm
06:30 AM 65.1°F18.4°C 57.4°F14.1°C 76% 3.3 mph NNW5.3 kmh NNW 6.8 mph10.9 kmh 29.71 in1006.1 mb 0.00 in0.0 mm 0.00 in0.0 mm 0.00 in0.0 mm
06:40 AM 66.9°F19.4°C 56.8°F13.8°C 70% 2.1 mph NNW3.4 kmh NNW 5.4 mph8.7 kmh 29.71 in1006.1 mb 0.00 in0.0 mm 0.00 in0.0 mm 0.00 in0.0 mm
06:50 AM 68.9°F20.5°C 56.2°F13.4°C 64% 0.8 mph NNW1.3 kmh NNW 6.1 mph9.8 kmh 29.71 in1006.1 mb 0.00 in0.0 mm 0.00 in0.0 mm 0.00 in0.0 mm
07:00 AM 69.8°F21.0°C 56.2°F13.4°C 62% 1.4 mph NNW2.3 kmh NNW 5.7 mph9.2 kmh 29.71 in1006.1 mb 0.00 in0.0 mm 0.00 in0.0 mm 0.00 in0.0 mm
07:10 AM 70.9°F21.6°C 55.8°F13.2°C 59% 1.0 mph NW1.6 kmh NW 6.1 mph9.8 kmh 29.71 in1006.1 mb 0.00 in0.0 mm 0.00 in0.0 mm 0.00 in0.0 mm
07:20 AM 71.4°F21.9°C 54.9°F12.7°C 56% 0.5 mph NW0.8 kmh NW 4.7 mph7.6 kmh 29.74 in1007.1 mb 0.00 in0.0 mm 0.00 in0.0 mm 0.00 in0.0 mm
07:30 AM 70.5°F21.4°C 54.1°F12.3°C 56% 1.9 mph NW3.1 kmh NW 6.8 mph10.9 kmh 29.74 in1007.1 mb 0.00 in0.0 mm 0.00 in0.0 mm 0.00 in0.0 mm
07:40 AM 67.1°F19.5°C 51.4°F10.8°C 57% Calm Calm -- 29.74 in1007.1 mb 0.00 in0.0 mm 0.00 in0.0 mm 0.00 in0.0 mm
07:50 AM 66.2°F19.0°C 51.9°F11.1°C 60% 0.3 mph N0.5 kmh N 4.3 mph6.9 kmh 29.74 in1007.1 mb 0.00 in0.0 mm 0.00 in0.0 mm 0.00 in0.0 mm
08:00 AM 67.6°F19.8°C 54.2°F12.3°C 62% 0.6 mph SW1.0 kmh SW 4.7 mph7.6 kmh 29.74 in1007.1 mb 0.00 in0.0 mm 0.00 in0.0 mm 0.00 in0.0 mm
08:10 AM 70.2°F21.2°C 55.6°F13.1°C 60% 1.0 mph WNW1.6 kmh WNW 6.1 mph9.8 kmh 29.74 in1007.1 mb 0.00 in0.0 mm 0.00 in0.0 mm 0.00 in0.0 mm
08:20 AM 67.1°F19.5°C 53.2°F11.8°C 61% 0.6 mph W1.0 kmh W 4.3 mph6.9 kmh 29.74 in1007.1 mb 0.00 in0.0 mm 0.00 in0.0 mm 0.00 in0.0 mm
08:30 AM 67.6°F19.8°C 53.7°F12.1°C 61% 2.4 mph NNW3.9 kmh NNW 6.4 mph10.3 kmh 29.74 in1007.1 mb 0.00 in0.0 mm 0.00 in0.0 mm 0.00 in0.0 mm
08:40 AM 66.4°F19.1°C 53.0°F11.7°C 62% 1.4 mph W2.3 kmh W 6.4 mph10.3 kmh 29.74 in1007.1 mb 0.00 in0.0 mm 0.00 in0.0 mm 0.00 in0.0 mm
08:50 AM 67.3°F19.6°C 54.3°F12.4°C 63% 2.5 mph SSW4.0 kmh SSW 9.3 mph15.0 kmh 29.74 in1007.1 mb 0.00 in0.0 mm 0.00 in0.0 mm 0.00 in0.0 mm
09:00 AM 67.6°F19.8°C 54.2°F12.3°C 62% 1.7 mph WSW2.7 kmh WSW 6.8 mph10.9 kmh 29.74 in1007.1 mb 0.00 in0.0 mm 0.00 in0.0 mm 0.00 in0.0 mm
09:10 AM 67.5°F19.7°C 53.5°F11.9°C 61% 3.8 mph WSW6.1 kmh WSW 9.3 mph15.0 kmh 29.74 in1007.1 mb 0.00 in0.0 mm 0.00 in0.0 mm 0.00 in0.0 mm
09:20 AM 66.4°F19.1°C 52.5°F11.4°C 61% 2.8 mph WSW4.5 kmh WSW 6.4 mph10.3 kmh 29.74 in1007.1 mb 0.00 in0.0 mm 0.00 in0.0 mm 0.00 in0.0 mm
09:30 AM 67.5°F19.7°C 54.4°F12.4°C 63% 3.0 mph SW4.8 kmh SW 8.9 mph14.3 kmh 29.74 in1007.1 mb 0.00 in0.0 mm 0.00 in0.0 mm 0.00 in0.0 mm
09:40 AM 66.9°F19.4°C 52.6°F11.4°C 60% 3.4 mph SW5.5 kmh SW 7.9 mph12.7 kmh 29.74 in1007.1 mb 0.00 in0.0 mm 0.00 in0.0 mm 0.00 in0.0 mm
09:50 AM 67.1°F19.5°C 53.2°F11.8°C 61% 3.8 mph SW6.1 kmh SW 9.3 mph15.0 kmh 29.74 in1007.1 mb 0.00 in0.0 mm 0.00 in0.0 mm 0.00 in0.0 mm
10:00 AM 66.2°F19.0°C 51.9°F11.1°C 60% 3.3 mph WSW5.3 kmh WSW 7.5 mph12.1 kmh 29.71 in1006.1 mb 0.00 in0.0 mm 0.00 in0.0 mm 0.00 in0.0 mm
10:10 AM 65.3°F18.5°C 51.9°F11.1°C 62% 2.2 mph W3.5 kmh W 6.1 mph9.8 kmh 29.71 in1006.1 mb 0.00 in0.0 mm 0.00 in0.0 mm 0.00 in0.0 mm
10:20 AM 65.8°F18.8°C 53.3°F11.8°C 64% 3.0 mph NW4.8 kmh NW 8.6 mph13.8 kmh 29.77 in1008.1 mb 0.00 in0.0 mm 0.00 in0.0 mm 0.00 in0.0 mm
10:30 AM 66.4°F19.1°C 53.4°F11.9°C 63% 3.2 mph WSW5.1 kmh WSW 10.7 mph17.2 kmh 29.71 in1006.1 mb 0.00 in0.0 mm 0.00 in0.0 mm 0.00 in0.0 mm
10:40 AM 67.1°F19.5°C 54.1°F12.3°C 63% 4.1 mph WSW6.6 kmh WSW 9.3 mph15.0 kmh 29.71 in1006.1 mb 0.00 in0.0 mm 0.00 in0.0 mm 0.00 in0.0 mm
10:50 AM 67.5°F19.7°C 54.0°F12.2°C 62% 4.1 mph WSW6.6 kmh WSW 12.5 mph20.1 kmh 29.74 in1007.1 mb 0.00 in0.0 mm 0.00 in0.0 mm 0.00 in0.0 mm
11:00 AM 67.5°F19.7°C 54.0°F12.2°C 62% 3.6 mph WSW5.8 kmh WSW 9.7 mph15.6 kmh 29.74 in1007.1 mb 0.00 in0.0 mm 0.00 in0.0 mm 0.00 in0.0 mm
11:10 AM 66.9°F19.4°C 53.5°F11.9°C 62% 2.6 mph W4.2 kmh W 11.5 mph18.5 kmh 29.74 in1007.1 mb 0.00 in0.0 mm 0.00 in0.0 mm 0.00 in0.0 mm
11:20 AM 66.7°F19.3°C 53.3°F11.8°C 62% 3.1 mph W5.0 kmh W 9.7 mph15.6 kmh 29.71 in1006.1 mb 0.00 in0.0 mm 0.00 in0.0 mm 0.00 in0.0 mm
11:30 AM 66.6°F19.2°C 53.1°F11.7°C 62% 3.7 mph WSW6.0 kmh WSW 11.5 mph18.5 kmh 29.74 in1007.1 mb 0.00 in0.0 mm 0.00 in0.0 mm 0.00 in0.0 mm
11:40 AM 66.7°F19.3°C 53.3°F11.8°C 62% 3.4 mph W5.5 kmh W 8.6 mph13.8 kmh 29.74 in1007.1 mb 0.00 in0.0 mm 0.00 in0.0 mm 0.00 in0.0 mm
11:50 AM 66.6°F19.2°C 52.2°F11.2°C 60% 4.4 mph W7.1 kmh W 9.3 mph15.0 kmh 29.71 in1006.1 mb 0.00 in0.0 mm 0.00 in0.0 mm 0.00 in0.0 mm
12:00 PM 66.9°F19.4°C 53.5°F11.9°C 62% 4.1 mph WSW6.6 kmh WSW 12.9 mph20.8 kmh 29.71 in1006.1 mb 0.00 in0.0 mm 0.00 in0.0 mm 0.00 in0.0 mm
12:10 PM 66.9°F19.4°C 53.0°F11.7°C 61% 3.5 mph WSW5.6 kmh WSW 9.3 mph15.0 kmh 29.71 in1006.1 mb 0.00 in0.0 mm 0.00 in0.0 mm 0.00 in0.0 mm
12:20 PM 67.3°F19.6°C 53.4°F11.9°C 61% 4.1 mph WSW6.6 kmh WSW 10.4 mph16.7 kmh 29.71 in1006.1 mb 0.00 in0.0 mm 0.00 in0.0 mm 0.00 in0.0 mm
12:30 PM 66.4°F19.1°C 52.5°F11.4°C 61% 2.8 mph WNW4.5 kmh WNW 9.7 mph15.6 kmh 29.71 in1006.1 mb 0.00 in0.0 mm 0.00 in0.0 mm 0.00 in0.0 mm
12:40 PM 66.2°F19.0°C 52.8°F11.6°C 62% 2.3 mph WNW3.7 kmh WNW 9.3 mph15.0 kmh 29.71 in1006.1 mb 0.00 in0.0 mm 0.00 in0.0 mm 0.00 in0.0 mm
12:50 PM 65.3°F18.5°C 51.9°F11.1°C 62% 2.1 mph WNW3.4 kmh WNW 9.3 mph15.0 kmh 29.71 in1006.1 mb 0.00 in0.0 mm 0.00 in0.0 mm 0.00 in0.0 mm
01:00 PM 65.5°F18.6°C 52.1°F11.2°C 62% 2.0 mph W3.2 kmh W 7.9 mph12.7 kmh 29.74 in1007.1 mb 0.00 in0.0 mm 0.00 in0.0 mm 0.00 in0.0 mm
01:10 PM 66.2°F19.0°C 52.8°F11.6°C 62% 3.3 mph W5.3 kmh W 8.6 mph13.8 kmh 29.74 in1007.1 mb 0.00 in0.0 mm 0.00 in0.0 mm 0.00 in0.0 mm
01:20 PM 66.2°F19.0°C 52.3°F11.3°C 61% 2.1 mph SW3.4 kmh SW 7.5 mph12.1 kmh 29.74 in1007.1 mb 0.00 in0.0 mm 0.00 in0.0 mm 0.00 in0.0 mm
01:30 PM 66.0°F18.9°C 52.2°F11.2°C 61% 2.6 mph W4.2 kmh W 8.6 mph13.8 kmh 29.71 in1006.1 mb 0.00 in0.0 mm 0.00 in0.0 mm 0.00 in0.0 mm
01:40 PM 66.0°F18.9°C 51.7°F10.9°C 60% 2.1 mph WSW3.4 kmh WSW 9.7 mph15.6 kmh 29.71 in1006.1 mb 0.00 in0.0 mm 0.00 in0.0 mm 0.00 in0.0 mm
01:50 PM 66.2°F19.0°C 51.4°F10.8°C 59% 4.0 mph SW6.4 kmh SW 9.3 mph15.0 kmh 29.71 in1006.1 mb 0.00 in0.0 mm 0.00 in0.0 mm 0.00 in0.0 mm
02:00 PM 65.5°F18.6°C 50.8°F10.4°C 59% 2.6 mph SW4.2 kmh SW 7.9 mph12.7 kmh 29.74 in1007.1 mb 0.00 in0.0 mm 0.00 in0.0 mm 0.00 in0.0 mm
02:10 PM 65.7°F18.7°C 51.4°F10.8°C 60% 2.9 mph SSW4.7 kmh SSW 7.5 mph12.1 kmh 29.74 in1007.1 mb 0.00 in0.0 mm 0.00 in0.0 mm 0.00 in0.0 mm
02:20 PM 65.1°F18.4°C 50.4°F10.2°C 59% 2.0 mph W3.2 kmh W 6.8 mph10.9 kmh 29.74 in1007.1 mb 0.00 in0.0 mm 0.00 in0.0 mm 0.00 in0.0 mm
02:30 PM 64.9°F18.3°C 50.7°F10.4°C 60% 2.5 mph WSW4.0 kmh WSW 6.8 mph10.9 kmh 29.74 in1007.1 mb 0.00 in0.0 mm 0.00 in0.0 mm 0.00 in0.0 mm
02:40 PM 64.2°F17.9°C 49.1°F9.5°C 58% 1.1 mph SW1.8 kmh SW 5.7 mph9.2 kmh 29.74 in1007.1 mb 0.00 in0.0 mm 0.00 in0.0 mm 0.00 in0.0 mm
02:50 PM 64.2°F17.9°C 49.6°F9.8°C 59% 2.0 mph SW3.2 kmh SW 6.8 mph10.9 kmh 29.74 in1007.1 mb 0.00 in0.0 mm 0.00 in0.0 mm 0.00 in0.0 mm
03:00 PM 64.8°F18.2°C 50.1°F10.1°C 59% 1.4 mph WSW2.3 kmh WSW 6.1 mph9.8 kmh 29.74 in1007.1 mb 0.00 in0.0 mm 0.00 in0.0 mm 0.00 in0.0 mm
03:10 PM 64.9°F18.3°C 50.7°F10.4°C 60% 1.7 mph WSW2.7 kmh WSW 6.8 mph10.9 kmh 29.74 in1007.1 mb 0.00 in0.0 mm 0.00 in0.0 mm 0.00 in0.0 mm
03:20 PM 64.0°F17.8°C 49.4°F9.7°C 59% 1.4 mph WSW2.3 kmh WSW 5.0 mph8.0 kmh 29.74 in1007.1 mb 0.00 in0.0 mm 0.00 in0.0 mm 0.00 in0.0 mm
03:30 PM 64.0°F17.8°C 49.9°F9.9°C 60% 1.1 mph WSW1.8 kmh WSW 6.1 mph9.8 kmh 29.74 in1007.1 mb 0.00 in0.0 mm 0.00 in0.0 mm 0.00 in0.0 mm
03:40 PM 64.4°F18.0°C 49.8°F9.9°C 59% 3.1 mph WSW5.0 kmh WSW 6.8 mph10.9 kmh 29.74 in1007.1 mb 0.00 in0.0 mm 0.00 in0.0 mm 0.00 in0.0 mm
03:50 PM 64.2°F17.9°C 49.6°F9.8°C 59% 2.2 mph WSW3.5 kmh WSW 7.9 mph12.7 kmh 29.74 in1007.1 mb 0.00 in0.0 mm 0.00 in0.0 mm 0.00 in0.0 mm
04:00 PM 63.9°F17.7°C 49.2°F9.6°C 59% 0.6 mph WNW1.0 kmh WNW 4.7 mph7.6 kmh 29.74 in1007.1 mb 0.00 in0.0 mm 0.00 in0.0 mm 0.00 in0.0 mm
04:10 PM 63.1°F17.3°C 48.6°F9.2°C 59% 0.3 mph W0.5 kmh W 3.2 mph5.1 kmh 29.74 in1007.1 mb 0.00 in0.0 mm 0.00 in0.0 mm 0.00 in0.0 mm
04:20 PM 62.4°F16.9°C 48.3°F9.1°C 60% 0.2 mph WNW0.3 kmh WNW 2.5 mph4.0 kmh 29.71 in1006.1 mb 0.00 in0.0 mm 0.00 in0.0 mm 0.00 in0.0 mm
04:30 PM 61.5°F16.4°C 48.4°F9.1°C 62% 0.2 mph W0.3 kmh W 1.8 mph2.9 kmh 29.71 in1006.1 mb 0.00 in0.0 mm 0.00 in0.0 mm 0.00 in0.0 mm
04:40 PM 61.0°F16.1°C 48.3°F9.1°C 63% 0.5 mph WNW0.8 kmh WNW 3.9 mph6.3 kmh 29.71 in1006.1 mb 0.00 in0.0 mm 0.00 in0.0 mm 0.00 in0.0 mm
04:50 PM 60.8°F16.0°C 48.5°F9.2°C 64% Calm Calm 1.8 mph2.9 kmh 29.71 in1006.1 mb 0.00 in0.0 mm 0.00 in0.0 mm 0.00 in0.0 mm
05:00 PM 60.3°F15.7°C 48.4°F9.1°C 65% 0.4 mph WSW0.6 kmh WSW 3.9 mph6.3 kmh 29.74 in1007.1 mb 0.00 in0.0 mm 0.00 in0.0 mm 0.00 in0.0 mm
05:10 PM 59.9°F15.5°C 48.5°F9.2°C 66% 0.1 mph W0.2 kmh W 1.4 mph2.3 kmh 29.74 in1007.1 mb 0.00 in0.0 mm 0.00 in0.0 mm 0.00 in0.0 mm
05:20 PM 59.4°F15.2°C 48.0°F8.9°C 66% 0.2 mph NW0.3 kmh NW 2.5 mph4.0 kmh 29.74 in1007.1 mb 0.00 in0.0 mm 0.00 in0.0 mm 0.00 in0.0 mm
05:30 PM 59.0°F15.0°C 47.7°F8.7°C 66% Calm Calm -- 29.71 in1006.1 mb 0.00 in0.0 mm 0.00 in0.0 mm 0.00 in0.0 mm
05:40 PM 58.8°F14.9°C 47.5°F8.6°C 66% Calm Calm -- 29.71 in1006.1 mb 0.00 in0.0 mm 0.00 in0.0 mm 0.00 in0.0 mm
05:50 PM 59.0°F15.0°C 48.1°F8.9°C 67% Calm Calm 2.5 mph4.0 kmh 29.74 in1007.1 mb 0.00 in0.0 mm 0.00 in0.0 mm 0.00 in0.0 mm
06:00 PM 59.0°F15.0°C 48.1°F8.9°C 67% 0.1 mph NW0.2 kmh NW 3.2 mph5.1 kmh 29.71 in1006.1 mb 0.00 in0.0 mm 0.00 in0.0 mm 0.00 in0.0 mm
06:10 PM 59.2°F15.1°C 48.6°F9.2°C 68% 0.5 mph NNW0.8 kmh NNW 4.3 mph6.9 kmh 29.71 in1006.1 mb 0.00 in0.0 mm 0.00 in0.0 mm 0.00 in0.0 mm
06:20 PM 59.4°F15.2°C 48.8°F9.3°C 68% Calm Calm -- 29.71 in1006.1 mb 0.00 in0.0 mm 0.00 in0.0 mm 0.00 in0.0 mm
06:30 PM 59.4°F15.2°C 48.8°F9.3°C 68% 0.2 mph NW0.3 kmh NW 3.9 mph6.3 kmh 29.71 in1006.1 mb 0.00 in0.0 mm 0.00 in0.0 mm 0.00 in0.0 mm
06:40 PM 59.4°F15.2°C 48.8°F9.3°C 68% 0.4 mph NW0.6 kmh NW 5.7 mph9.2 kmh 29.71 in1006.1 mb 0.00 in0.0 mm 0.00 in0.0 mm 0.00 in0.0 mm
06:50 PM 59.2°F15.1°C 48.2°F9.0°C 67% 0.1 mph NW0.2 kmh NW 3.6 mph5.8 kmh 29.71 in1006.1 mb 0.00 in0.0 mm 0.00 in0.0 mm 0.00 in0.0 mm
07:00 PM 59.2°F15.1°C 48.2°F9.0°C 67% Calm Calm -- 29.71 in1006.1 mb 0.00 in0.0 mm 0.00 in0.0 mm 0.00 in0.0 mm
07:10 PM 59.2°F15.1°C 48.2°F9.0°C 67% 0.5 mph N0.8 kmh N 6.1 mph9.8 kmh 29.71 in1006.1 mb 0.00 in0.0 mm 0.00 in0.0 mm 0.00 in0.0 mm
07:20 PM 58.8°F14.9°C 47.9°F8.8°C 67% Calm Calm 2.1 mph3.4 kmh 29.68 in1005.1 mb 0.00 in0.0 mm 0.00 in0.0 mm 0.00 in0.0 mm
07:30 PM 58.3°F14.6°C 47.8°F8.8°C 68% Calm Calm -- 29.71 in1006.1 mb 0.00 in0.0 mm 0.00 in0.0 mm 0.00 in0.0 mm
07:40 PM 57.7°F14.3°C 48.0°F8.9°C 70% Calm Calm -- 29.71 in1006.1 mb 0.00 in0.0 mm 0.00 in0.0 mm 0.00 in0.0 mm
07:50 PM 57.4°F14.1°C 47.7°F8.7°C 70% 0.4 mph E0.6 kmh E 3.9 mph6.3 kmh 29.65 in1004.1 mb 0.00 in0.0 mm 0.00 in0.0 mm 0.00 in0.0 mm
08:00 PM 57.0°F13.9°C 47.3°F8.5°C 70% 0.2 mph E0.3 kmh E 3.9 mph6.3 kmh 29.65 in1004.1 mb 0.00 in0.0 mm 0.00 in0.0 mm 0.00 in0.0 mm
08:10 PM 56.5°F13.6°C 47.6°F8.7°C 72% Calm Calm -- 29.65 in1004.1 mb 0.00 in0.0 mm 0.00 in0.0 mm 0.00 in0.0 mm
08:20 PM 55.4°F13.0°C 46.9°F8.3°C 73% Calm Calm -- 29.68 in1005.1 mb 0.00 in0.0 mm 0.00 in0.0 mm 0.00 in0.0 mm
08:30 PM 54.7°F12.6°C 46.9°F8.3°C 75% Calm Calm -- 29.68 in1005.1 mb 0.00 in0.0 mm 0.00 in0.0 mm 0.00 in0.0 mm
08:40 PM 54.1°F12.3°C 46.7°F8.2°C 76% Calm Calm -- 29.68 in1005.1 mb 0.00 in0.0 mm 0.00 in0.0 mm 0.00 in0.0 mm
08:50 PM 53.6°F12.0°C 46.6°F8.1°C 77% Calm Calm -- 29.68 in1005.1 mb 0.00 in0.0 mm 0.00 in0.0 mm 0.00 in0.0 mm
09:00 PM 53.2°F11.8°C 46.2°F7.9°C 77% Calm Calm -- 29.68 in1005.1 mb 0.00 in0.0 mm 0.00 in0.0 mm 0.00 in0.0 mm
09:10 PM 52.9°F11.6°C 46.2°F7.9°C 78% Calm Calm -- 29.68 in1005.1 mb 0.00 in0.0 mm 0.00 in0.0 mm 0.00 in0.0 mm
09:20 PM 52.3°F11.3°C 45.7°F7.6°C 78% 0.1 mph ESE0.2 kmh ESE 1.8 mph2.9 kmh 29.68 in1005.1 mb 0.00 in0.0 mm 0.00 in0.0 mm 0.00 in0.0 mm
09:30 PM 52.0°F11.1°C 45.3°F7.4°C 78% Calm Calm -- 29.68 in1005.1 mb 0.00 in0.0 mm 0.00 in0.0 mm 0.00 in0.0 mm
09:40 PM 52.2°F11.2°C 45.8°F7.7°C 79% Calm Calm -- 29.68 in1005.1 mb 0.00 in0.0 mm 0.00 in0.0 mm 0.00 in0.0 mm
09:50 PM 51.8°F11.0°C 45.5°F7.5°C 79% 0.1 mph SE0.2 kmh SE 1.4 mph2.3 kmh 29.71 in1006.1 mb 0.00 in0.0 mm 0.00 in0.0 mm 0.00 in0.0 mm
10:00 PM 51.4°F10.8°C 45.1°F7.3°C 79% 0.1 mph SE0.2 kmh SE 1.4 mph2.3 kmh 29.68 in1005.1 mb 0.00 in0.0 mm 0.00 in0.0 mm 0.00 in0.0 mm
10:10 PM 51.4°F10.8°C 45.5°F7.5°C 80% Calm Calm -- 29.68 in1005.1 mb 0.00 in0.0 mm 0.00 in0.0 mm 0.00 in0.0 mm
10:20 PM 51.4°F10.8°C 45.5°F7.5°C 80% Calm Calm -- 29.68 in1005.1 mb 0.00 in0.0 mm 0.00 in0.0 mm 0.00 in0.0 mm
10:30 PM 51.3°F10.7°C 45.3°F7.4°C 80% Calm Calm -- 29.65 in1004.1 mb 0.00 in0.0 mm 0.00 in0.0 mm 0.00 in0.0 mm
10:40 PM 51.3°F10.7°C 45.3°F7.4°C 80% Calm Calm -- 29.65 in1004.1 mb 0.00 in0.0 mm 0.00 in0.0 mm 0.00 in0.0 mm
10:50 PM 51.3°F10.7°C 45.6°F7.6°C 81% 0.2 mph E0.3 kmh E 3.6 mph5.8 kmh 29.68 in1005.1 mb 0.00 in0.0 mm 0.00 in0.0 mm 0.00 in0.0 mm
11:00 PM 51.1°F10.6°C 45.5°F7.5°C 81% Calm Calm -- 29.68 in1005.1 mb 0.00 in0.0 mm 0.00 in0.0 mm 0.00 in0.0 mm
11:10 PM 51.1°F10.6°C 45.8°F7.7°C 82% 0.6 mph E1.0 kmh E 5.0 mph8.0 kmh 29.68 in1005.1 mb 0.00 in0.0 mm 0.00 in0.0 mm 0.00 in0.0 mm
11:20 PM 50.9°F10.5°C 45.6°F7.6°C 82% 2.6 mph E4.2 kmh E 6.8 mph10.9 kmh 29.68 in1005.1 mb 0.00 in0.0 mm 0.00 in0.0 mm 0.00 in0.0 mm
11:30 PM 50.9°F10.5°C 45.6°F7.6°C 82% 1.6 mph E2.6 kmh E 5.7 mph9.2 kmh 29.68 in1005.1 mb 0.00 in0.0 mm 0.00 in0.0 mm 0.00 in0.0 mm
11:40 PM 50.7°F10.4°C 45.7°F7.6°C 83% 6.6 mph E10.6 kmh E 11.5 mph18.5 kmh 29.68 in1005.1 mb 0.00 in0.0 mm 0.00 in0.0 mm 0.00 in0.0 mm
11:50 PM 50.9°F10.5°C 45.9°F7.7°C 83% 6.9 mph E11.1 kmh E 10.4 mph16.7 kmh 29.65 in1004.1 mb 0.00 in0.0 mm 0.00 in0.0 mm 0.00 in0.0 mm